Terminal Aerodrome Forecast
Issued by NWS

Home | Current Version | Previous Version | Text Only | Print | Product List | Glossary On
Versions: 1 2 3 4 5 6 7 8 9 10 11 12 13 14 15 16 17 18 19 20 21 22 23 24 25 26 27 28 29 30 31 32
972
FTUS46 KHNX 170520
TAFMER
TAF
KMER 170520Z 1706/1806 15020G27KT P6SM -RA OVC050
      TEMPO 1712/1716 4SM -TSRA OVC020CB
     FM171700 14019G26KT 4SM RA BR OVC020
     FM172100 16014G20KT 4SM BR OVC035
     FM180100 31010KT 4SM BR OVC050=

USA.gov is the U.S. government's official web portal to all federal, state and local government web resources and services.